createdAt,value
2018-05-16T00:00:32.138Z,68.73
2018-05-16T00:02:59.534Z,69.99
2018-05-16T00:05:26.924Z,69.92
2018-05-16T00:07:54.389Z,70.73
2018-05-16T00:10:21.805Z,70.12
2018-05-16T00:12:49.197Z,70.24
2018-05-16T00:15:16.704Z,70.81
2018-05-16T00:17:44.094Z,70.27
2018-05-16T00:20:11.489Z,69.80
2018-05-16T00:22:39.021Z,69.74
2018-05-16T00:25:06.514Z,69.95
2018-05-16T00:27:33.897Z,70.37
2018-05-16T00:30:01.313Z,70.97
2018-05-16T00:32:28.724Z,70.31
2018-05-16T00:34:56.117Z,69.85
2018-05-16T00:37:23.513Z,69.58
2018-05-16T00:39:50.907Z,69.22
2018-05-16T00:42:18.345Z,69.02
2018-05-16T00:44:45.774Z,69.24
2018-05-16T00:47:13.182Z,69.53
2018-05-16T00:49:40.671Z,70.13
2018-05-16T00:52:08.090Z,70.76
2018-05-16T00:54:35.480Z,70.98
2018-05-16T00:57:02.885Z,70.82
2018-05-16T00:59:30.310Z,71.29
2018-05-16T01:01:57.773Z,73.21
2018-05-16T01:04:25.174Z,73.67
2018-05-16T01:06:52.710Z,74.07
2018-05-16T01:09:20.112Z,73.89
2018-05-16T01:11:47.530Z,74.36
2018-05-16T01:14:14.901Z,74.48
2018-05-16T01:16:42.337Z,75.02
2018-05-16T01:19:09.726Z,74.68
2018-05-16T01:21:37.147Z,74.91
2018-05-16T01:24:04.565Z,74.92
2018-05-16T01:26:32.013Z,74.62
2018-05-16T01:28:59.471Z,75.00
2018-05-16T01:31:26.871Z,76.06
2018-05-16T01:33:54.806Z,76.32
2018-05-16T01:36:22.256Z,76.02
2018-05-16T01:38:49.658Z,75.30
2018-05-16T01:41:17.093Z,74.71
2018-05-16T01:43:44.494Z,74.16
2018-05-16T01:46:11.966Z,73.36
2018-05-16T01:48:39.425Z,73.49
2018-05-16T01:51:06.825Z,74.97
2018-05-16T01:53:34.238Z,75.09
2018-05-16T01:56:01.689Z,75.62
2018-05-16T01:58:29.093Z,76.02
2018-05-16T02:00:56.507Z,75.33
2018-05-16T02:03:23.969Z,74.65
2018-05-16T02:05:51.403Z,73.90
2018-05-16T02:08:18.878Z,74.97
2018-05-16T02:10:46.281Z,75.09
2018-05-16T02:13:13.684Z,75.43
2018-05-16T02:15:41.085Z,75.45
2018-05-16T02:18:08.493Z,75.17
2018-05-16T02:20:36.375Z,74.50
2018-05-16T02:23:03.775Z,73.93
2018-05-16T02:25:31.173Z,74.26
2018-05-16T02:27:58.631Z,73.86
2018-05-16T02:30:26.029Z,73.52
2018-05-16T02:32:53.424Z,73.39
2018-05-16T02:35:20.893Z,72.84
2018-05-16T02:37:48.306Z,72.55
2018-05-16T02:40:15.821Z,73.01
2018-05-16T02:42:43.233Z,73.36
2018-05-16T02:45:10.617Z,73.65
2018-05-16T02:47:38.138Z,74.13
2018-05-16T02:50:05.537Z,74.17
2018-05-16T02:52:32.993Z,74.08
2018-05-16T02:55:00.449Z,73.91
2018-05-16T02:57:27.884Z,73.97
2018-05-16T02:59:55.365Z,73.61
2018-05-16T03:02:22.814Z,73.69
2018-05-16T03:04:50.294Z,73.69
2018-05-16T03:07:17.745Z,74.00
2018-05-16T03:09:45.189Z,74.01
2018-05-16T03:12:12.649Z,73.76
2018-05-16T03:14:40.086Z,73.48
2018-05-16T03:17:07.562Z,73.66
2018-05-16T03:19:34.958Z,73.36
2018-05-16T03:22:02.380Z,73.42
2018-05-16T03:24:29.762Z,73.32
2018-05-16T03:26:57.187Z,73.00
2018-05-16T03:29:24.630Z,72.55
2018-05-16T03:31:52.033Z,72.39
2018-05-16T03:34:19.450Z,72.10
2018-05-16T03:36:46.915Z,71.94
2018-05-16T03:39:14.345Z,72.03
2018-05-16T03:41:41.741Z,71.59
2018-05-16T03:44:09.173Z,71.46
2018-05-16T03:46:36.566Z,71.54
2018-05-16T03:49:04.020Z,71.33
2018-05-16T03:51:31.441Z,70.84
2018-05-16T03:53:58.844Z,70.62
2018-05-16T03:56:26.244Z,70.84
2018-05-16T04:02:04.379Z,70.43
2018-05-16T04:04:31.777Z,70.27
2018-05-16T04:06:59.222Z,69.71
2018-05-16T04:09:26.705Z,69.37
2018-05-16T04:11:54.122Z,69.10
2018-05-16T04:14:21.580Z,69.06
2018-05-16T04:16:49.042Z,68.77
2018-05-16T04:19:16.469Z,68.71
2018-05-16T04:21:43.865Z,68.75
2018-05-16T04:24:11.305Z,68.52
2018-05-16T04:26:38.700Z,68.30
2018-05-16T04:29:06.143Z,68.73
2018-05-16T04:31:33.545Z,69.09
2018-05-16T04:34:00.958Z,69.50
2018-05-16T04:36:28.385Z,69.54
2018-05-16T04:38:55.843Z,70.14
2018-05-16T04:41:23.241Z,72.27
2018-05-16T04:43:50.633Z,72.29
2018-05-16T04:46:18.029Z,72.06
2018-05-16T04:48:45.433Z,73.43
2018-05-16T04:51:12.921Z,73.48
2018-05-16T04:53:40.322Z,73.45
2018-05-16T04:56:07.730Z,73.11
2018-05-16T04:58:35.117Z,73.36
2018-05-16T05:01:02.555Z,72.78
2018-05-16T05:03:29.961Z,72.35
2018-05-16T05:05:57.360Z,72.65
2018-05-16T05:08:24.822Z,73.21
2018-05-16T05:10:52.233Z,73.08
2018-05-16T05:13:19.617Z,72.42
2018-05-16T05:15:47.049Z,71.93
2018-05-16T05:18:14.561Z,71.77
2018-05-16T05:20:41.891Z,71.67
2018-05-16T05:23:09.315Z,72.11
2018-05-16T05:25:36.721Z,72.27
2018-05-16T05:28:04.157Z,73.69
2018-05-16T05:30:31.580Z,73.10
2018-05-16T05:32:58.990Z,72.56
2018-05-16T05:35:26.486Z,72.13
2018-05-16T05:37:53.973Z,72.70
2018-05-16T05:40:21.437Z,72.31
2018-05-16T05:42:48.828Z,72.29
2018-05-16T05:45:16.385Z,71.54
2018-05-16T05:47:43.792Z,71.36
2018-05-16T05:50:11.194Z,71.31
2018-05-16T05:52:38.604Z,71.20
2018-05-16T05:55:06.014Z,71.24
2018-05-16T05:57:33.437Z,71.06
2018-05-16T06:00:00.881Z,70.92
2018-05-16T06:02:28.258Z,70.84
2018-05-16T06:04:55.659Z,70.32
2018-05-16T06:07:23.078Z,69.05
2018-05-16T06:09:50.529Z,68.26
2018-05-16T06:12:17.985Z,66.49
2018-05-16T06:14:45.388Z,65.71
2018-05-16T06:17:12.805Z,66.01
2018-05-16T06:19:40.351Z,65.48
2018-05-16T06:22:07.711Z,65.35
2018-05-16T06:24:35.131Z,65.06
2018-05-16T06:27:02.612Z,66.47
2018-05-16T06:29:29.930Z,66.34
2018-05-16T06:31:57.444Z,66.76
2018-05-16T06:34:25.840Z,66.50
2018-05-16T06:36:53.245Z,66.69
2018-05-16T06:39:20.681Z,66.25
2018-05-16T06:41:48.068Z,66.02
2018-05-16T06:44:15.542Z,65.76
2018-05-16T06:46:43.001Z,65.37
2018-05-16T06:49:10.473Z,64.24
2018-05-16T06:51:37.874Z,63.83
2018-05-16T06:54:05.287Z,63.54
2018-05-16T06:56:32.727Z,63.91
2018-05-16T06:59:00.210Z,63.51
2018-05-16T07:01:27.606Z,65.23
2018-05-16T07:03:55.078Z,63.96
2018-05-16T07:06:22.496Z,65.01
2018-05-16T07:08:49.881Z,64.59
2018-05-16T07:11:17.378Z,63.87
2018-05-16T07:13:44.770Z,62.89
2018-05-16T07:16:12.278Z,62.45
2018-05-16T07:18:39.785Z,62.82
2018-05-16T07:21:07.189Z,62.34
2018-05-16T07:23:34.598Z,61.75
2018-05-16T07:26:02.057Z,61.78
2018-05-16T07:28:29.484Z,60.60
2018-05-16T07:30:56.979Z,61.21
2018-05-16T07:33:24.430Z,60.40
2018-05-16T07:35:51.809Z,59.11
2018-05-16T07:38:19.202Z,59.01
2018-05-16T07:40:46.617Z,57.18
2018-05-16T07:43:14.016Z,56.60
2018-05-16T07:45:41.449Z,51.36
2018-05-16T07:48:08.837Z,47.94
2018-05-16T07:50:36.250Z,45.15
2018-05-16T07:53:03.718Z,43.84
2018-05-16T07:55:31.141Z,42.30
2018-05-16T07:57:58.542Z,42.89
2018-05-16T08:00:26.542Z,41.56
2018-05-16T08:02:53.937Z,39.39
2018-05-16T08:05:21.344Z,39.88
2018-05-16T08:07:49.111Z,39.78
2018-05-16T08:10:16.517Z,38.35
2018-05-16T08:12:43.980Z,39.07
2018-05-16T08:15:11.402Z,41.19
2018-05-16T08:17:38.809Z,41.43
2018-05-16T08:20:06.212Z,40.13
2018-05-16T08:22:33.690Z,41.21
2018-05-16T08:25:01.161Z,40.88
2018-05-16T08:27:28.554Z,40.10
2018-05-16T08:29:56.077Z,42.62
2018-05-16T08:32:23.457Z,42.45
2018-05-16T08:34:50.918Z,43.25
2018-05-16T08:37:18.308Z,43.83
2018-05-16T08:39:45.789Z,45.09
2018-05-16T08:42:13.214Z,44.31
2018-05-16T08:44:40.721Z,45.40
2018-05-16T08:47:08.109Z,43.49
2018-05-16T08:49:35.513Z,41.37
2018-05-16T08:52:02.920Z,42.20
2018-05-16T08:54:30.711Z,41.21
2018-05-16T08:56:58.112Z,40.95
2018-05-16T08:59:25.523Z,42.23
2018-05-16T09:01:53.046Z,40.37
2018-05-16T09:04:20.497Z,41.40
2018-05-16T09:06:47.992Z,41.07
2018-05-16T09:09:15.403Z,37.52
2018-05-16T09:11:43.793Z,35.79
2018-05-16T09:14:11.211Z,36.19
2018-05-16T09:16:38.613Z,36.15
2018-05-16T09:19:06.021Z,35.11
2018-05-16T09:21:33.469Z,34.99
2018-05-16T09:24:00.911Z,36.05
2018-05-16T09:26:28.329Z,36.53
2018-05-16T09:28:55.737Z,35.46
2018-05-16T09:31:23.145Z,36.56
2018-05-16T09:33:50.638Z,34.62
2018-05-16T09:36:18.113Z,36.43
2018-05-16T09:38:45.511Z,35.63
2018-05-16T09:41:12.899Z,35.99
2018-05-16T09:43:40.365Z,36.42
2018-05-16T09:46:07.769Z,36.60
2018-05-16T09:48:35.173Z,36.86
2018-05-16T09:51:02.654Z,36.75
2018-05-16T09:53:30.093Z,37.66
2018-05-16T09:55:57.571Z,37.99
2018-05-16T09:58:24.977Z,37.97
2018-05-16T10:00:52.465Z,36.79
2018-05-16T10:03:19.925Z,38.65
2018-05-16T10:05:47.340Z,37.49
2018-05-16T10:08:14.838Z,38.47
2018-05-16T10:10:42.277Z,38.16
2018-05-16T10:13:09.754Z,36.94
2018-05-16T10:15:37.261Z,36.62
2018-05-16T10:18:04.741Z,36.67
2018-05-16T10:20:32.142Z,34.52
2018-05-16T10:22:59.584Z,34.91
2018-05-16T10:25:26.990Z,34.08
2018-05-16T10:27:54.841Z,34.15
2018-05-16T10:30:22.332Z,33.29
2018-05-16T10:32:49.717Z,34.64
2018-05-16T10:35:17.215Z,32.20
2018-05-16T10:37:44.634Z,33.86
2018-05-16T10:40:12.164Z,33.54
2018-05-16T10:42:39.608Z,34.21
2018-05-16T10:45:07.097Z,33.84
2018-05-16T10:47:34.523Z,33.42
2018-05-16T10:50:01.953Z,33.20
2018-05-16T10:52:29.429Z,34.57
2018-05-16T10:54:56.885Z,32.37
2018-05-16T10:57:24.303Z,32.59
2018-05-16T10:59:51.716Z,33.04
2018-05-16T11:02:19.115Z,34.32
2018-05-16T11:04:46.508Z,34.04
2018-05-16T11:07:13.905Z,31.96
2018-05-16T11:09:41.359Z,33.33
2018-05-16T11:12:08.738Z,33.93
2018-05-16T11:14:36.257Z,33.74
2018-05-16T11:17:03.756Z,32.38
2018-05-16T11:19:31.298Z,31.52
2018-05-16T11:21:58.682Z,32.65
2018-05-16T11:24:26.315Z,30.92
2018-05-16T11:26:53.536Z,32.61
2018-05-16T11:29:21.005Z,31.98
2018-05-16T11:31:48.426Z,31.87
2018-05-16T11:34:15.813Z,31.47
2018-05-16T11:36:43.372Z,30.58
2018-05-16T11:39:10.713Z,29.81
2018-05-16T11:41:38.134Z,29.41
2018-05-16T11:44:05.631Z,29.41
2018-05-16T11:46:33.086Z,30.51
2018-05-16T11:49:00.477Z,31.47
2018-05-16T11:51:27.969Z,29.43
2018-05-16T11:53:56.277Z,31.09
2018-05-16T11:56:23.684Z,28.81
2018-05-16T11:58:51.096Z,30.37
2018-05-16T12:01:18.500Z,29.73
2018-05-16T12:03:45.981Z,30.07
2018-05-16T12:06:13.388Z,31.17
2018-05-16T12:08:40.876Z,29.55
2018-05-16T12:11:08.345Z,30.94
2018-05-16T12:13:35.729Z,31.83
2018-05-16T12:16:03.145Z,30.08
2018-05-16T12:18:30.612Z,30.51
2018-05-16T12:20:58.070Z,30.92
2018-05-16T12:23:25.478Z,30.91
2018-05-16T12:25:52.968Z,30.61
2018-05-16T12:28:20.368Z,29.67
2018-05-16T12:30:47.791Z,28.97
2018-05-16T12:33:15.214Z,28.62
2018-05-16T12:35:42.711Z,29.20
2018-05-16T12:38:10.093Z,29.15
2018-05-16T12:40:37.536Z,30.53
2018-05-16T12:43:19.884Z,29.46
2018-05-16T12:45:47.306Z,28.70
2018-05-16T12:48:14.825Z,28.94
2018-05-16T12:50:42.228Z,28.70
2018-05-16T12:53:09.725Z,28.62
2018-05-16T12:55:37.213Z,28.83
2018-05-16T12:58:04.634Z,28.77
2018-05-16T13:00:32.037Z,28.70
2018-05-16T13:02:59.441Z,29.09
2018-05-16T13:05:26.906Z,29.34
2018-05-16T13:07:54.322Z,30.68
2018-05-16T13:10:21.820Z,30.93
2018-05-16T13:12:49.373Z,30.26
2018-05-16T13:15:16.730Z,28.75
2018-05-16T13:17:44.226Z,28.92
2018-05-16T13:20:11.530Z,29.61
2018-05-16T13:22:38.945Z,29.53
2018-05-16T13:25:06.347Z,30.91
2018-05-16T13:27:33.753Z,30.85
2018-05-16T13:30:01.142Z,31.07
2018-05-16T13:32:28.602Z,30.05
2018-05-16T13:34:56.063Z,31.00
2018-05-16T13:37:23.509Z,30.77
2018-05-16T13:39:50.904Z,31.25
2018-05-16T13:42:18.316Z,30.67
2018-05-16T13:44:45.725Z,30.42
2018-05-16T13:47:13.129Z,30.48
2018-05-16T13:49:40.524Z,30.58
2018-05-16T13:52:07.933Z,32.96
2018-05-16T13:54:35.329Z,41.42
2018-05-16T13:57:02.741Z,48.78
2018-05-16T13:59:30.161Z,49.70
2018-05-16T14:01:57.574Z,54.62
2018-05-16T14:04:24.979Z,62.44
2018-05-16T14:06:52.368Z,61.00
2018-05-16T14:09:19.765Z,62.18
2018-05-16T14:11:47.206Z,64.67
2018-05-16T14:14:14.596Z,68.89
2018-05-16T14:16:42.001Z,72.92
2018-05-16T14:19:09.485Z,68.73
2018-05-16T14:21:36.902Z,71.75
2018-05-16T14:24:04.389Z,66.20
2018-05-16T14:26:31.815Z,65.14
2018-05-16T14:28:59.712Z,61.42
2018-05-16T14:31:27.209Z,64.59
2018-05-16T14:33:54.975Z,60.40
2018-05-16T14:36:22.382Z,59.79
2018-05-16T14:38:50.011Z,58.66
2018-05-16T14:41:17.449Z,57.37
2018-05-16T14:43:44.917Z,52.08
2018-05-16T14:46:12.341Z,56.61
2018-05-16T14:48:39.746Z,53.41
2018-05-16T14:51:07.161Z,53.93
2018-05-16T14:53:34.557Z,50.32
2018-05-16T14:56:01.970Z,52.37
2018-05-16T14:58:29.369Z,51.41
2018-05-16T15:00:56.775Z,53.10
2018-05-16T15:03:24.186Z,55.55
2018-05-16T15:05:51.573Z,51.99
2018-05-16T15:08:18.982Z,51.50
2018-05-16T15:10:46.394Z,52.15
2018-05-16T15:13:13.886Z,52.27
2018-05-16T15:15:41.266Z,53.92
2018-05-16T15:18:08.677Z,53.54
2018-05-16T15:20:36.107Z,54.18
2018-05-16T15:23:03.545Z,54.72
2018-05-16T15:25:30.943Z,54.31
2018-05-16T15:27:58.345Z,53.90
2018-05-16T15:30:25.854Z,52.11
2018-05-16T15:32:53.257Z,53.14
2018-05-16T15:35:20.667Z,54.47
2018-05-16T15:37:48.062Z,55.55
2018-05-16T15:40:15.461Z,55.57
2018-05-16T15:42:42.872Z,52.68
2018-05-16T15:45:10.309Z,51.73
2018-05-16T15:47:37.713Z,53.25
2018-05-16T15:50:05.108Z,52.13
2018-05-16T15:52:32.521Z,51.43
2018-05-16T15:54:59.913Z,52.46
2018-05-16T15:57:27.320Z,53.46
2018-05-16T15:59:54.738Z,53.73
2018-05-16T16:02:22.137Z,53.03
2018-05-16T16:04:49.564Z,51.96
2018-05-16T16:07:17.009Z,52.48
2018-05-16T16:09:44.430Z,52.59
2018-05-16T16:12:11.834Z,53.78
2018-05-16T16:14:39.234Z,53.64
2018-05-16T16:17:06.715Z,53.54
2018-05-16T16:19:34.144Z,54.92
2018-05-16T16:22:01.597Z,54.60
2018-05-16T16:24:29.060Z,54.36
2018-05-16T16:26:56.458Z,54.17
2018-05-16T16:29:23.885Z,53.86
2018-05-16T16:31:51.355Z,52.58
2018-05-16T16:34:18.749Z,52.32
2018-05-16T16:36:46.179Z,51.93
2018-05-16T16:39:13.596Z,52.66
2018-05-16T16:41:41.002Z,52.42
2018-05-16T16:44:08.399Z,51.34
2018-05-16T16:46:35.811Z,51.45
2018-05-16T16:49:03.386Z,51.61
2018-05-16T16:51:31.009Z,52.48
2018-05-16T16:53:58.442Z,53.75
2018-05-16T16:56:25.904Z,52.99
2018-05-16T16:58:53.313Z,54.13
2018-05-16T17:01:20.764Z,53.47
2018-05-16T17:03:48.177Z,53.69
2018-05-16T17:06:15.573Z,53.63
2018-05-16T17:08:43.001Z,53.65
2018-05-16T17:11:10.409Z,53.84
2018-05-16T17:13:37.834Z,55.25
2018-05-16T17:16:05.230Z,54.74
2018-05-16T17:18:32.671Z,55.23
2018-05-16T17:21:00.097Z,56.57
2018-05-16T17:23:27.501Z,55.73
2018-05-16T17:25:54.896Z,56.03
2018-05-16T17:28:22.302Z,54.84
2018-05-16T17:30:49.738Z,56.21
2018-05-16T17:33:17.211Z,57.80
2018-05-16T17:35:44.641Z,58.67
2018-05-16T17:38:12.103Z,59.98
2018-05-16T17:40:39.498Z,60.11
2018-05-16T17:43:06.929Z,60.59
2018-05-16T17:45:34.313Z,61.55
2018-05-16T17:48:01.745Z,60.33
2018-05-16T17:50:29.177Z,60.43
2018-05-16T17:52:56.642Z,61.40
2018-05-16T17:55:24.051Z,61.65
2018-05-16T17:57:51.569Z,60.93
2018-05-16T18:00:18.967Z,61.19
2018-05-16T18:02:46.391Z,60.99
2018-05-16T18:05:13.772Z,60.48
2018-05-16T18:07:41.195Z,61.77
2018-05-16T18:10:09.511Z,62.10
2018-05-16T18:12:36.918Z,62.08
2018-05-16T18:15:18.828Z,62.63
2018-05-16T18:17:46.219Z,62.60
2018-05-16T18:20:13.625Z,63.43
2018-05-16T18:22:41.024Z,63.53
2018-05-16T18:25:10.399Z,63.71
2018-05-16T18:27:37.837Z,63.73
2018-05-16T18:30:05.237Z,63.51
2018-05-16T18:32:32.670Z,63.82
2018-05-16T18:35:00.105Z,64.35
2018-05-16T18:37:27.601Z,64.29
2018-05-16T18:39:55.092Z,64.77
2018-05-16T18:42:22.480Z,64.16
2018-05-16T18:44:49.900Z,64.76
2018-05-16T18:47:17.295Z,64.41
2018-05-16T18:49:45.621Z,64.51
2018-05-16T18:52:13.021Z,64.85
2018-05-16T18:54:40.492Z,64.22
2018-05-16T18:57:07.899Z,64.75
2018-05-16T18:59:35.313Z,64.42
2018-05-16T19:02:02.710Z,64.39
2018-05-16T19:04:30.121Z,64.62
2018-05-16T19:06:57.521Z,64.73
2018-05-16T19:09:24.934Z,64.71
2018-05-16T19:11:52.329Z,64.69
2018-05-16T19:14:19.935Z,65.33
2018-05-16T19:16:47.398Z,65.89
2018-05-16T19:19:14.793Z,66.18
2018-05-16T19:21:42.214Z,66.07
2018-05-16T19:24:09.649Z,66.71
2018-05-16T19:26:37.038Z,66.91
2018-05-16T19:29:04.438Z,67.12
2018-05-16T19:31:31.934Z,67.34
2018-05-16T19:33:59.338Z,67.88
2018-05-16T19:36:26.766Z,68.37
2018-05-16T19:38:54.166Z,68.79
2018-05-16T19:41:21.564Z,69.12
2018-05-16T19:43:49.030Z,69.75
2018-05-16T19:46:16.530Z,70.47
2018-05-16T19:48:43.845Z,70.65
2018-05-16T19:51:11.233Z,70.87
2018-05-16T19:53:38.638Z,71.29
2018-05-16T19:56:06.041Z,71.43
2018-05-16T19:58:33.460Z,72.33
2018-05-16T20:01:00.931Z,72.38
2018-05-16T20:03:28.337Z,72.14
2018-05-16T20:05:55.817Z,72.49
2018-05-16T20:08:23.281Z,72.36
2018-05-16T20:10:50.665Z,72.97
2018-05-16T20:13:18.088Z,72.99
2018-05-16T20:15:45.894Z,73.75
2018-05-16T20:18:13.483Z,73.45
2018-05-16T20:20:41.449Z,73.79
2018-05-16T20:23:09.047Z,73.98
2018-05-16T20:25:36.565Z,73.98
2018-05-16T20:28:04.218Z,74.68
2018-05-16T20:30:32.080Z,74.40
2018-05-16T20:32:59.613Z,74.38
2018-05-16T20:35:27.050Z,74.26
2018-05-16T20:37:54.441Z,74.35
2018-05-16T20:40:21.841Z,74.58
2018-05-16T20:42:49.243Z,74.23
2018-05-16T20:45:16.737Z,74.36
2018-05-16T20:47:44.052Z,74.33
2018-05-16T20:50:11.439Z,74.31
2018-05-16T20:52:38.877Z,74.33
2018-05-16T20:55:06.293Z,74.32
2018-05-16T20:57:33.682Z,74.36
2018-05-16T21:00:01.098Z,74.76
2018-05-16T21:02:28.566Z,74.65
2018-05-16T21:04:55.981Z,74.81
2018-05-16T21:07:23.396Z,74.91
2018-05-16T21:09:50.794Z,74.98
2018-05-16T21:12:18.285Z,75.04
2018-05-16T21:14:45.685Z,75.17
2018-05-16T21:17:13.092Z,75.02
2018-05-16T21:19:41.424Z,75.34
2018-05-16T21:22:08.885Z,75.44
2018-05-16T21:24:36.281Z,75.64
2018-05-16T21:27:03.756Z,75.62
2018-05-16T21:29:31.206Z,75.63
2018-05-16T21:31:58.660Z,75.21
2018-05-16T21:34:26.061Z,75.09
2018-05-16T21:36:53.494Z,75.56
2018-05-16T21:39:20.912Z,75.42
2018-05-16T21:41:48.321Z,75.56
2018-05-16T21:44:15.808Z,75.97
2018-05-16T21:46:43.217Z,76.37
2018-05-16T21:49:10.625Z,76.77
2018-05-16T21:51:38.044Z,77.16
2018-05-16T21:54:05.454Z,76.56
2018-05-16T21:56:32.848Z,76.85
2018-05-16T21:59:00.298Z,76.26
2018-05-16T22:01:27.690Z,76.35
2018-05-16T22:03:55.104Z,76.91
2018-05-16T22:06:22.506Z,77.13
2018-05-16T22:08:49.924Z,77.25
2018-05-16T22:11:17.306Z,77.76
2018-05-16T22:13:44.722Z,77.53
2018-05-16T22:16:12.203Z,77.56
2018-05-16T22:18:39.581Z,77.54
2018-05-16T22:21:06.993Z,77.68
2018-05-16T22:23:34.389Z,77.79
2018-05-16T22:26:01.802Z,77.87
2018-05-16T22:28:30.168Z,77.83
2018-05-16T22:31:03.137Z,78.12
2018-05-16T22:33:36.157Z,78.00
2018-05-16T22:36:09.232Z,78.10
2018-05-16T22:38:42.233Z,78.28
2018-05-16T22:41:15.150Z,78.56
2018-05-16T22:46:44.495Z,78.76
2018-05-16T22:49:11.901Z,78.30
2018-05-16T22:51:39.357Z,77.96
2018-05-16T22:54:06.749Z,76.77
2018-05-16T22:56:34.180Z,77.22
2018-05-16T22:59:01.582Z,77.26
2018-05-16T23:01:28.997Z,77.63
2018-05-16T23:03:56.437Z,77.39
2018-05-16T23:06:23.847Z,77.11
2018-05-16T23:08:51.232Z,76.91
2018-05-16T23:11:18.717Z,77.01
2018-05-16T23:13:46.110Z,76.86
2018-05-16T23:16:13.723Z,77.12
2018-05-16T23:18:41.088Z,77.28
2018-05-16T23:21:08.496Z,77.64
2018-05-16T23:23:35.884Z,77.83
2018-05-16T23:26:03.346Z,77.86
2018-05-16T23:28:30.769Z,77.33
2018-05-16T23:30:58.268Z,77.80
2018-05-16T23:33:25.661Z,77.48
2018-05-16T23:35:53.070Z,77.64
2018-05-16T23:38:20.466Z,78.38
2018-05-16T23:40:47.867Z,78.91
2018-05-16T23:43:15.265Z,78.82
2018-05-16T23:45:42.686Z,78.44
2018-05-16T23:48:10.149Z,78.64
2018-05-16T23:50:37.610Z,78.77
2018-05-16T23:53:05.013Z,78.34
2018-05-16T23:55:32.431Z,78.09
2018-05-16T23:57:59.826Z,78.54
